sensor_id;sensor_type;location;lat;lon;timestamp;P1;durP1;ratioP1;P2;durP2;ratioP2
13897;SDS011;7019;50.766;4.474;2023-04-24T00:01:44;18.17;;;12.97;;
13897;SDS011;7019;50.766;4.474;2023-04-24T00:04:12;19.30;;;13.07;;
13897;SDS011;7019;50.766;4.474;2023-04-24T00:06:41;16.47;;;11.30;;
13897;SDS011;7019;50.766;4.474;2023-04-24T00:09:09;19.33;;;12.73;;
13897;SDS011;7019;50.766;4.474;2023-04-24T00:11:36;18.47;;;13.70;;
13897;SDS011;7019;50.766;4.474;2023-04-24T00:14:03;24.77;;;13.63;;
13897;SDS011;7019;50.766;4.474;2023-04-24T00:16:30;23.97;;;12.70;;
13897;SDS011;7019;50.766;4.474;2023-04-24T00:18:57;18.63;;;12.87;;
13897;SDS011;7019;50.766;4.474;2023-04-24T00:21:27;20.97;;;13.23;;
13897;SDS011;7019;50.766;4.474;2023-04-24T00:23:55;21.97;;;13.50;;
13897;SDS011;7019;50.766;4.474;2023-04-24T00:26:22;21.47;;;13.13;;
13897;SDS011;7019;50.766;4.474;2023-04-24T00:28:51;21.70;;;13.83;;
13897;SDS011;7019;50.766;4.474;2023-04-24T00:31:18;18.20;;;13.13;;
13897;SDS011;7019;50.766;4.474;2023-04-24T00:33:45;18.73;;;14.20;;
13897;SDS011;7019;50.766;4.474;2023-04-24T00:36:12;22.17;;;13.53;;
13897;SDS011;7019;50.766;4.474;2023-04-24T00:38:41;22.43;;;13.27;;
13897;SDS011;7019;50.766;4.474;2023-04-24T00:41:08;19.97;;;13.13;;
13897;SDS011;7019;50.766;4.474;2023-04-24T00:43:35;19.07;;;12.90;;
13897;SDS011;7019;50.766;4.474;2023-04-24T00:46:02;20.47;;;12.37;;
13897;SDS011;7019;50.766;4.474;2023-04-24T00:48:29;21.37;;;13.63;;
13897;SDS011;7019;50.766;4.474;2023-04-24T00:50:57;21.83;;;13.23;;
13897;SDS011;7019;50.766;4.474;2023-04-24T00:53:24;21.53;;;13.10;;
13897;SDS011;7019;50.766;4.474;2023-04-24T00:55:53;24.93;;;13.43;;
13897;SDS011;7019;50.766;4.474;2023-04-24T00:58:20;21.27;;;13.83;;
13897;SDS011;7019;50.766;4.474;2023-04-24T01:00:47;22.60;;;13.27;;
13897;SDS011;7019;50.766;4.474;2023-04-24T01:03:18;20.17;;;14.03;;
13897;SDS011;7019;50.766;4.474;2023-04-24T01:05:46;20.70;;;14.43;;
13897;SDS011;7019;50.766;4.474;2023-04-24T01:08:13;18.17;;;12.43;;
13897;SDS011;7019;50.766;4.474;2023-04-24T01:10:41;18.80;;;14.00;;
13897;SDS011;7019;50.766;4.474;2023-04-24T01:13:11;18.70;;;13.27;;
13897;SDS011;7019;50.766;4.474;2023-04-24T01:15:38;21.40;;;13.37;;
13897;SDS011;7019;50.766;4.474;2023-04-24T01:18:05;24.80;;;13.77;;
13897;SDS011;7019;50.766;4.474;2023-04-24T01:20:32;24.33;;;14.97;;
13897;SDS011;7019;50.766;4.474;2023-04-24T01:23:03;20.37;;;13.97;;
13897;SDS011;7019;50.766;4.474;2023-04-24T01:25:30;24.03;;;15.47;;
13897;SDS011;7019;50.766;4.474;2023-04-24T01:27:57;25.93;;;15.13;;
13897;SDS011;7019;50.766;4.474;2023-04-24T01:30:24;22.43;;;14.90;;
13897;SDS011;7019;50.766;4.474;2023-04-24T01:32:52;22.63;;;14.37;;
13897;SDS011;7019;50.766;4.474;2023-04-24T01:35:20;20.87;;;14.83;;
13897;SDS011;7019;50.766;4.474;2023-04-24T01:37:47;24.83;;;14.97;;
13897;SDS011;7019;50.766;4.474;2023-04-24T01:40:18;27.80;;;14.23;;
13897;SDS011;7019;50.766;4.474;2023-04-24T01:42:45;21.93;;;14.70;;
13897;SDS011;7019;50.766;4.474;2023-04-24T01:45:12;25.17;;;14.90;;
13897;SDS011;7019;50.766;4.474;2023-04-24T01:47:39;19.57;;;14.77;;
13897;SDS011;7019;50.766;4.474;2023-04-24T01:50:09;27.23;;;16.27;;
13897;SDS011;7019;50.766;4.474;2023-04-24T01:52:36;28.80;;;14.83;;
13897;SDS011;7019;50.766;4.474;2023-04-24T01:55:04;26.20;;;16.03;;
13897;SDS011;7019;50.766;4.474;2023-04-24T01:57:33;19.50;;;15.73;;
13897;SDS011;7019;50.766;4.474;2023-04-24T02:00:01;23.67;;;16.87;;
13897;SDS011;7019;50.766;4.474;2023-04-24T02:02:29;23.53;;;16.40;;
13897;SDS011;7019;50.766;4.474;2023-04-24T02:04:59;23.80;;;16.60;;
13897;SDS011;7019;50.766;4.474;2023-04-24T02:07:27;31.33;;;17.07;;
13897;SDS011;7019;50.766;4.474;2023-04-24T02:09:54;21.07;;;16.20;;
13897;SDS011;7019;50.766;4.474;2023-04-24T02:12:24;26.13;;;17.80;;
13897;SDS011;7019;50.766;4.474;2023-04-24T02:14:53;21.77;;;16.30;;
13897;SDS011;7019;50.766;4.474;2023-04-24T02:17:20;28.17;;;17.67;;
13897;SDS011;7019;50.766;4.474;2023-04-24T02:19:47;23.50;;;18.40;;
13897;SDS011;7019;50.766;4.474;2023-04-24T02:22:15;30.37;;;19.57;;
13897;SDS011;7019;50.766;4.474;2023-04-24T02:24:44;27.97;;;18.10;;
13897;SDS011;7019;50.766;4.474;2023-04-24T02:27:11;24.43;;;18.20;;
13897;SDS011;7019;50.766;4.474;2023-04-24T02:29:38;26.13;;;18.30;;
13897;SDS011;7019;50.766;4.474;2023-04-24T02:32:06;25.30;;;18.13;;
13897;SDS011;7019;50.766;4.474;2023-04-24T02:34:36;25.33;;;17.00;;
13897;SDS011;7019;50.766;4.474;2023-04-24T02:37:06;25.47;;;16.63;;
13897;SDS011;7019;50.766;4.474;2023-04-24T02:39:33;20.70;;;15.50;;
13897;SDS011;7019;50.766;4.474;2023-04-24T02:42:02;21.93;;;16.50;;
13897;SDS011;7019;50.766;4.474;2023-04-24T02:44:30;21.20;;;16.17;;
13897;SDS011;7019;50.766;4.474;2023-04-24T02:46:57;22.40;;;15.60;;
13897;SDS011;7019;50.766;4.474;2023-04-24T02:49:25;24.90;;;16.47;;
13897;SDS011;7019;50.766;4.474;2023-04-24T02:51:53;22.60;;;15.83;;
13897;SDS011;7019;50.766;4.474;2023-04-24T02:54:20;23.27;;;15.53;;
13897;SDS011;7019;50.766;4.474;2023-04-24T02:56:47;20.40;;;14.23;;
13897;SDS011;7019;50.766;4.474;2023-04-24T02:59:14;21.23;;;14.17;;
13897;SDS011;7019;50.766;4.474;2023-04-24T03:01:41;20.77;;;14.17;;
13897;SDS011;7019;50.766;4.474;2023-04-24T03:04:08;21.00;;;15.07;;
13897;SDS011;7019;50.766;4.474;2023-04-24T03:06:38;18.13;;;14.43;;
13897;SDS011;7019;50.766;4.474;2023-04-24T03:09:05;17.87;;;14.03;;
13897;SDS011;7019;50.766;4.474;2023-04-24T03:11:32;20.63;;;14.00;;
13897;SDS011;7019;50.766;4.474;2023-04-24T03:13:59;23.77;;;14.23;;
13897;SDS011;7019;50.766;4.474;2023-04-24T03:16:26;18.53;;;13.40;;
13897;SDS011;7019;50.766;4.474;2023-04-24T03:18:53;20.23;;;12.67;;
13897;SDS011;7019;50.766;4.474;2023-04-24T03:21:20;17.23;;;13.10;;
13897;SDS011;7019;50.766;4.474;2023-04-24T03:23:48;18.20;;;13.63;;
13897;SDS011;7019;50.766;4.474;2023-04-24T03:26:15;20.53;;;13.27;;
13897;SDS011;7019;50.766;4.474;2023-04-24T03:28:42;17.20;;;12.97;;
13897;SDS011;7019;50.766;4.474;2023-04-24T03:31:09;20.77;;;13.20;;
13897;SDS011;7019;50.766;4.474;2023-04-24T03:33:36;18.50;;;12.23;;
13897;SDS011;7019;50.766;4.474;2023-04-24T03:36:03;18.90;;;12.87;;
13897;SDS011;7019;50.766;4.474;2023-04-24T03:38:31;20.63;;;13.50;;
13897;SDS011;7019;50.766;4.474;2023-04-24T03:40:59;18.97;;;13.17;;
13897;SDS011;7019;50.766;4.474;2023-04-24T03:43:27;16.37;;;11.73;;
13897;SDS011;7019;50.766;4.474;2023-04-24T03:46:00;16.27;;;11.30;;
13897;SDS011;7019;50.766;4.474;2023-04-24T03:48:28;15.23;;;11.10;;
13897;SDS011;7019;50.766;4.474;2023-04-24T03:50:55;16.77;;;11.27;;
13897;SDS011;7019;50.766;4.474;2023-04-24T03:53:22;14.37;;;11.27;;
13897;SDS011;7019;50.766;4.474;2023-04-24T03:55:49;14.60;;;11.20;;
13897;SDS011;7019;50.766;4.474;2023-04-24T03:58:17;15.70;;;10.53;;
13897;SDS011;7019;50.766;4.474;2023-04-24T04:00:44;16.00;;;10.27;;
13897;SDS011;7019;50.766;4.474;2023-04-24T04:03:13;17.00;;;10.70;;
13897;SDS011;7019;50.766;4.474;2023-04-24T04:05:40;15.23;;;10.20;;
13897;SDS011;7019;50.766;4.474;2023-04-24T04:08:07;12.93;;;9.53;;
13897;SDS011;7019;50.766;4.474;2023-04-24T04:10:34;14.03;;;8.43;;
13897;SDS011;7019;50.766;4.474;2023-04-24T04:13:01;10.57;;;6.80;;
13897;SDS011;7019;50.766;4.474;2023-04-24T04:15:30;9.13;;;6.80;;
13897;SDS011;7019;50.766;4.474;2023-04-24T04:17:57;6.93;;;5.23;;
13897;SDS011;7019;50.766;4.474;2023-04-24T04:20:24;7.77;;;6.83;;
13897;SDS011;7019;50.766;4.474;2023-04-24T04:22:51;12.50;;;7.40;;
13897;SDS011;7019;50.766;4.474;2023-04-24T04:25:18;9.67;;;7.60;;
13897;SDS011;7019;50.766;4.474;2023-04-24T04:27:45;9.13;;;7.60;;
13897;SDS011;7019;50.766;4.474;2023-04-24T04:30:13;11.47;;;8.00;;
13897;SDS011;7019;50.766;4.474;2023-04-24T04:32:41;10.33;;;8.17;;
13897;SDS011;7019;50.766;4.474;2023-04-24T04:35:08;10.93;;;8.37;;
13897;SDS011;7019;50.766;4.474;2023-04-24T04:37:36;12.17;;;7.87;;
13897;SDS011;7019;50.766;4.474;2023-04-24T04:40:03;12.07;;;8.77;;
13897;SDS011;7019;50.766;4.474;2023-04-24T04:42:32;12.07;;;8.00;;
13897;SDS011;7019;50.766;4.474;2023-04-24T04:45:00;9.77;;;8.03;;
13897;SDS011;7019;50.766;4.474;2023-04-24T04:47:27;11.57;;;7.90;;
13897;SDS011;7019;50.766;4.474;2023-04-24T04:49:58;11.30;;;8.67;;
13897;SDS011;7019;50.766;4.474;2023-04-24T04:52:25;12.13;;;8.60;;
13897;SDS011;7019;50.766;4.474;2023-04-24T04:54:52;12.20;;;8.77;;
13897;SDS011;7019;50.766;4.474;2023-04-24T04:57:19;13.70;;;9.30;;
13897;SDS011;7019;50.766;4.474;2023-04-24T04:59:46;13.43;;;9.37;;
13897;SDS011;7019;50.766;4.474;2023-04-24T05:02:13;14.60;;;10.03;;
13897;SDS011;7019;50.766;4.474;2023-04-24T05:04:41;13.43;;;10.13;;
13897;SDS011;7019;50.766;4.474;2023-04-24T05:07:09;14.50;;;10.03;;
13897;SDS011;7019;50.766;4.474;2023-04-24T05:09:36;16.57;;;10.37;;
13897;SDS011;7019;50.766;4.474;2023-04-24T05:12:03;16.53;;;10.20;;
13897;SDS011;7019;50.766;4.474;2023-04-24T05:14:30;18.20;;;10.33;;
13897;SDS011;7019;50.766;4.474;2023-04-24T05:16:57;17.50;;;11.70;;
13897;SDS011;7019;50.766;4.474;2023-04-24T05:19:25;18.07;;;11.33;;
13897;SDS011;7019;50.766;4.474;2023-04-24T05:21:52;15.67;;;10.73;;
13897;SDS011;7019;50.766;4.474;2023-04-24T05:24:23;17.87;;;12.27;;
13897;SDS011;7019;50.766;4.474;2023-04-24T05:26:50;16.37;;;12.17;;
13897;SDS011;7019;50.766;4.474;2023-04-24T05:29:18;17.20;;;11.43;;
13897;SDS011;7019;50.766;4.474;2023-04-24T05:31:46;15.23;;;11.33;;
13897;SDS011;7019;50.766;4.474;2023-04-24T05:34:13;19.07;;;13.23;;
13897;SDS011;7019;50.766;4.474;2023-04-24T05:36:41;19.50;;;13.93;;
13897;SDS011;7019;50.766;4.474;2023-04-24T05:39:09;18.93;;;13.37;;
13897;SDS011;7019;50.766;4.474;2023-04-24T05:41:38;22.33;;;12.53;;
13897;SDS011;7019;50.766;4.474;2023-04-24T05:44:05;22.07;;;13.50;;
13897;SDS011;7019;50.766;4.474;2023-04-24T05:46:32;22.60;;;14.53;;
13897;SDS011;7019;50.766;4.474;2023-04-24T05:48:59;19.87;;;14.10;;
13897;SDS011;7019;50.766;4.474;2023-04-24T05:51:27;21.13;;;13.90;;
13897;SDS011;7019;50.766;4.474;2023-04-24T05:53:54;23.17;;;14.43;;
13897;SDS011;7019;50.766;4.474;2023-04-24T05:56:21;23.70;;;14.40;;
13897;SDS011;7019;50.766;4.474;2023-04-24T05:58:50;21.17;;;13.80;;
13897;SDS011;7019;50.766;4.474;2023-04-24T06:01:17;20.77;;;13.67;;
13897;SDS011;7019;50.766;4.474;2023-04-24T06:03:44;22.87;;;14.57;;
13897;SDS011;7019;50.766;4.474;2023-04-24T06:06:12;20.27;;;14.17;;
13897;SDS011;7019;50.766;4.474;2023-04-24T06:08:39;21.80;;;14.50;;
13897;SDS011;7019;50.766;4.474;2023-04-24T06:11:07;23.40;;;13.20;;
13897;SDS011;7019;50.766;4.474;2023-04-24T06:13:35;23.57;;;14.47;;
13897;SDS011;7019;50.766;4.474;2023-04-24T06:16:04;23.73;;;14.40;;
13897;SDS011;7019;50.766;4.474;2023-04-24T06:18:31;22.43;;;13.73;;
13897;SDS011;7019;50.766;4.474;2023-04-24T06:20:58;21.13;;;15.13;;
13897;SDS011;7019;50.766;4.474;2023-04-24T06:23:26;25.30;;;14.57;;
13897;SDS011;7019;50.766;4.474;2023-04-24T06:25:53;20.70;;;13.87;;
13897;SDS011;7019;50.766;4.474;2023-04-24T06:28:20;18.33;;;13.17;;
13897;SDS011;7019;50.766;4.474;2023-04-24T06:30:47;22.53;;;14.23;;
13897;SDS011;7019;50.766;4.474;2023-04-24T06:33:15;22.77;;;14.93;;
13897;SDS011;7019;50.766;4.474;2023-04-24T06:35:42;20.20;;;14.70;;
13897;SDS011;7019;50.766;4.474;2023-04-24T06:38:09;22.63;;;15.27;;
13897;SDS011;7019;50.766;4.474;2023-04-24T06:40:36;27.07;;;16.43;;
13897;SDS011;7019;50.766;4.474;2023-04-24T06:43:03;22.67;;;13.40;;
13897;SDS011;7019;50.766;4.474;2023-04-24T06:45:31;24.43;;;15.60;;
13897;SDS011;7019;50.766;4.474;2023-04-24T06:47:58;23.73;;;17.03;;
13897;SDS011;7019;50.766;4.474;2023-04-24T06:50:26;27.63;;;17.20;;
13897;SDS011;7019;50.766;4.474;2023-04-24T06:52:53;29.27;;;18.07;;
13897;SDS011;7019;50.766;4.474;2023-04-24T06:55:21;31.30;;;19.23;;
13897;SDS011;7019;50.766;4.474;2023-04-24T06:57:48;30.83;;;19.47;;
13897;SDS011;7019;50.766;4.474;2023-04-24T07:00:15;31.20;;;20.00;;
13897;SDS011;7019;50.766;4.474;2023-04-24T07:02:42;32.57;;;19.63;;
13897;SDS011;7019;50.766;4.474;2023-04-24T07:05:09;29.87;;;19.13;;
13897;SDS011;7019;50.766;4.474;2023-04-24T07:07:39;28.77;;;18.17;;
13897;SDS011;7019;50.766;4.474;2023-04-24T07:10:08;29.60;;;18.23;;
13897;SDS011;7019;50.766;4.474;2023-04-24T07:12:38;27.83;;;18.80;;
13897;SDS011;7019;50.766;4.474;2023-04-24T07:15:06;27.43;;;17.10;;
13897;SDS011;7019;50.766;4.474;2023-04-24T07:17:34;24.17;;;17.40;;
13897;SDS011;7019;50.766;4.474;2023-04-24T07:20:03;29.50;;;17.40;;
13897;SDS011;7019;50.766;4.474;2023-04-24T07:22:34;25.53;;;16.87;;
13897;SDS011;7019;50.766;4.474;2023-04-24T07:25:03;23.50;;;16.50;;
13897;SDS011;7019;50.766;4.474;2023-04-24T07:27:31;21.27;;;16.57;;
13897;SDS011;7019;50.766;4.474;2023-04-24T07:30:01;27.43;;;16.47;;
13897;SDS011;7019;50.766;4.474;2023-04-24T07:32:29;25.57;;;16.23;;
13897;SDS011;7019;50.766;4.474;2023-04-24T07:34:56;27.60;;;15.73;;
13897;SDS011;7019;50.766;4.474;2023-04-24T07:37:23;23.97;;;15.57;;
13897;SDS011;7019;50.766;4.474;2023-04-24T07:39:50;27.13;;;15.27;;
13897;SDS011;7019;50.766;4.474;2023-04-24T07:42:20;21.70;;;13.90;;
13897;SDS011;7019;50.766;4.474;2023-04-24T07:44:48;22.20;;;14.43;;
13897;SDS011;7019;50.766;4.474;2023-04-24T07:47:16;23.63;;;14.07;;
13897;SDS011;7019;50.766;4.474;2023-04-24T07:49:43;17.30;;;13.03;;
13897;SDS011;7019;50.766;4.474;2023-04-24T07:52:12;22.80;;;13.20;;
13897;SDS011;7019;50.766;4.474;2023-04-24T07:54:39;23.13;;;14.43;;
13897;SDS011;7019;50.766;4.474;2023-04-24T07:57:06;23.77;;;14.10;;
13897;SDS011;7019;50.766;4.474;2023-04-24T07:59:34;19.07;;;13.40;;
13897;SDS011;7019;50.766;4.474;2023-04-24T08:02:01;25.23;;;15.20;;
13897;SDS011;7019;50.766;4.474;2023-04-24T08:04:28;23.30;;;13.70;;
13897;SDS011;7019;50.766;4.474;2023-04-24T08:06:55;20.90;;;13.80;;
13897;SDS011;7019;50.766;4.474;2023-04-24T08:09:22;20.47;;;12.73;;
13897;SDS011;7019;50.766;4.474;2023-04-24T08:11:50;19.27;;;12.17;;
13897;SDS011;7019;50.766;4.474;2023-04-24T08:14:17;24.87;;;12.70;;
13897;SDS011;7019;50.766;4.474;2023-04-24T08:16:45;24.97;;;11.70;;
13897;SDS011;7019;50.766;4.474;2023-04-24T08:19:12;18.93;;;11.70;;
13897;SDS011;7019;50.766;4.474;2023-04-24T08:21:39;17.97;;;11.33;;
13897;SDS011;7019;50.766;4.474;2023-04-24T08:24:06;18.30;;;9.23;;
13897;SDS011;7019;50.766;4.474;2023-04-24T08:26:33;17.77;;;10.13;;
13897;SDS011;7019;50.766;4.474;2023-04-24T08:29:01;14.83;;;10.07;;
13897;SDS011;7019;50.766;4.474;2023-04-24T08:31:28;16.87;;;9.40;;
13897;SDS011;7019;50.766;4.474;2023-04-24T08:33:56;16.87;;;9.20;;
13897;SDS011;7019;50.766;4.474;2023-04-24T08:36:25;16.43;;;9.67;;
13897;SDS011;7019;50.766;4.474;2023-04-24T08:38:52;19.40;;;8.97;;
13897;SDS011;7019;50.766;4.474;2023-04-24T08:41:22;15.47;;;10.07;;
13897;SDS011;7019;50.766;4.474;2023-04-24T08:43:51;14.10;;;8.97;;
13897;SDS011;7019;50.766;4.474;2023-04-24T08:46:20;13.73;;;9.20;;
13897;SDS011;7019;50.766;4.474;2023-04-24T08:48:48;11.93;;;8.03;;
13897;SDS011;7019;50.766;4.474;2023-04-24T08:51:18;13.00;;;8.63;;
13897;SDS011;7019;50.766;4.474;2023-04-24T08:53:46;12.23;;;7.70;;
13897;SDS011;7019;50.766;4.474;2023-04-24T08:56:13;14.80;;;8.00;;
13897;SDS011;7019;50.766;4.474;2023-04-24T08:58:41;13.93;;;8.77;;
13897;SDS011;7019;50.766;4.474;2023-04-24T09:01:09;13.73;;;6.73;;
13897;SDS011;7019;50.766;4.474;2023-04-24T09:03:37;12.00;;;6.50;;
13897;SDS011;7019;50.766;4.474;2023-04-24T09:06:06;12.80;;;5.97;;
13897;SDS011;7019;50.766;4.474;2023-04-24T09:08:37;9.37;;;5.33;;
13897;SDS011;7019;50.766;4.474;2023-04-24T09:11:07;11.23;;;5.27;;
13897;SDS011;7019;50.766;4.474;2023-04-24T09:13:35;10.87;;;5.83;;
13897;SDS011;7019;50.766;4.474;2023-04-24T09:16:03;10.80;;;5.30;;
13897;SDS011;7019;50.766;4.474;2023-04-24T09:18:30;12.40;;;6.77;;
13897;SDS011;7019;50.766;4.474;2023-04-24T09:20:58;8.97;;;4.87;;
13897;SDS011;7019;50.766;4.474;2023-04-24T09:23:27;9.73;;;4.37;;
13897;SDS011;7019;50.766;4.474;2023-04-24T09:25:56;8.93;;;4.37;;
13897;SDS011;7019;50.766;4.474;2023-04-24T09:28:26;11.97;;;3.80;;
13897;SDS011;7019;50.766;4.474;2023-04-24T09:31:02;6.60;;;4.00;;
13897;SDS011;7019;50.766;4.474;2023-04-24T09:33:30;6.33;;;3.77;;
13897;SDS011;7019;50.766;4.474;2023-04-24T09:35:57;10.67;;;4.60;;
13897;SDS011;7019;50.766;4.474;2023-04-24T09:38:32;10.17;;;4.97;;
13897;SDS011;7019;50.766;4.474;2023-04-24T09:41:02;10.37;;;4.87;;
13897;SDS011;7019;50.766;4.474;2023-04-24T09:43:32;10.13;;;5.00;;
13897;SDS011;7019;50.766;4.474;2023-04-24T09:46:03;11.73;;;5.37;;
13897;SDS011;7019;50.766;4.474;2023-04-24T09:48:32;8.93;;;4.97;;
13897;SDS011;7019;50.766;4.474;2023-04-24T09:51:00;5.77;;;4.13;;
13897;SDS011;7019;50.766;4.474;2023-04-24T09:53:29;7.87;;;4.37;;
13897;SDS011;7019;50.766;4.474;2023-04-24T09:56:03;9.80;;;5.47;;
13897;SDS011;7019;50.766;4.474;2023-04-24T09:58:34;6.80;;;5.10;;
13897;SDS011;7019;50.766;4.474;2023-04-24T10:01:02;11.17;;;4.60;;
13897;SDS011;7019;50.766;4.474;2023-04-24T10:03:31;11.63;;;4.47;;
13897;SDS011;7019;50.766;4.474;2023-04-24T10:05:59;9.47;;;4.43;;
13897;SDS011;7019;50.766;4.474;2023-04-24T10:08:26;7.03;;;4.40;;
13897;SDS011;7019;50.766;4.474;2023-04-24T10:11:00;11.27;;;4.53;;
13897;SDS011;7019;50.766;4.474;2023-04-24T10:13:29;7.17;;;3.70;;
13897;SDS011;7019;50.766;4.474;2023-04-24T10:15:58;10.07;;;4.47;;
13897;SDS011;7019;50.766;4.474;2023-04-24T10:18:26;8.43;;;4.00;;
13897;SDS011;7019;50.766;4.474;2023-04-24T10:20:53;7.97;;;3.47;;
13897;SDS011;7019;50.766;4.474;2023-04-24T10:23:23;7.57;;;3.57;;
13897;SDS011;7019;50.766;4.474;2023-04-24T10:25:54;5.50;;;3.30;;
13897;SDS011;7019;50.766;4.474;2023-04-24T10:28:23;9.03;;;3.80;;
13897;SDS011;7019;50.766;4.474;2023-04-24T10:30:52;7.50;;;3.77;;
13897;SDS011;7019;50.766;4.474;2023-04-24T10:33:21;10.33;;;3.97;;
13897;SDS011;7019;50.766;4.474;2023-04-24T10:35:52;6.83;;;3.60;;
13897;SDS011;7019;50.766;4.474;2023-04-24T10:38:22;8.77;;;4.07;;
13897;SDS011;7019;50.766;4.474;2023-04-24T10:40:51;6.27;;;4.20;;
13897;SDS011;7019;50.766;4.474;2023-04-24T10:43:34;8.87;;;4.20;;
13897;SDS011;7019;50.766;4.474;2023-04-24T10:46:02;8.83;;;3.87;;
13897;SDS011;7019;50.766;4.474;2023-04-24T10:48:30;9.70;;;4.20;;
13897;SDS011;7019;50.766;4.474;2023-04-24T10:50:58;9.43;;;5.00;;
13897;SDS011;7019;50.766;4.474;2023-04-24T10:53:27;5.87;;;4.03;;
13897;SDS011;7019;50.766;4.474;2023-04-24T10:55:57;6.30;;;4.47;;
13897;SDS011;7019;50.766;4.474;2023-04-24T10:58:36;8.43;;;4.60;;
13897;SDS011;7019;50.766;4.474;2023-04-24T11:01:05;8.30;;;4.93;;
13897;SDS011;7019;50.766;4.474;2023-04-24T11:03:33;12.03;;;4.90;;
13897;SDS011;7019;50.766;4.474;2023-04-24T11:06:02;9.97;;;5.70;;
13897;SDS011;7019;50.766;4.474;2023-04-24T11:08:31;15.20;;;5.80;;
13897;SDS011;7019;50.766;4.474;2023-04-24T11:11:07;8.00;;;5.50;;
13897;SDS011;7019;50.766;4.474;2023-04-24T11:16:31;9.93;;;5.70;;
13897;SDS011;7019;50.766;4.474;2023-04-24T11:19:01;8.63;;;5.67;;
13897;SDS011;7019;50.766;4.474;2023-04-24T11:24:27;9.80;;;6.03;;
13897;SDS011;7019;50.766;4.474;2023-04-24T11:27:05;11.73;;;5.87;;
13897;SDS011;7019;50.766;4.474;2023-04-24T11:29:42;9.93;;;5.63;;
13897;SDS011;7019;50.766;4.474;2023-04-24T11:32:14;9.73;;;5.70;;
13897;SDS011;7019;50.766;4.474;2023-04-24T11:34:46;6.90;;;4.97;;
13897;SDS011;7019;50.766;4.474;2023-04-24T11:37:14;8.57;;;5.70;;
13897;SDS011;7019;50.766;4.474;2023-04-24T11:39:41;10.80;;;5.50;;
13897;SDS011;7019;50.766;4.474;2023-04-24T11:42:08;9.33;;;6.50;;
13897;SDS011;7019;50.766;4.474;2023-04-24T11:44:36;9.40;;;6.13;;
13897;SDS011;7019;50.766;4.474;2023-04-24T11:47:05;10.13;;;5.93;;
13897;SDS011;7019;50.766;4.474;2023-04-24T11:49:33;8.73;;;5.80;;
13897;SDS011;7019;50.766;4.474;2023-04-24T11:52:00;8.63;;;6.00;;
13897;SDS011;7019;50.766;4.474;2023-04-24T11:54:27;12.40;;;6.10;;
13897;SDS011;7019;50.766;4.474;2023-04-24T11:56:55;7.00;;;5.17;;
13897;SDS011;7019;50.766;4.474;2023-04-24T11:59:22;8.63;;;5.67;;
13897;SDS011;7019;50.766;4.474;2023-04-24T12:01:49;9.93;;;5.90;;
13897;SDS011;7019;50.766;4.474;2023-04-24T12:04:18;7.07;;;6.10;;
13897;SDS011;7019;50.766;4.474;2023-04-24T12:07:00;9.83;;;6.07;;
13897;SDS011;7019;50.766;4.474;2023-04-24T12:09:28;8.50;;;5.93;;
13897;SDS011;7019;50.766;4.474;2023-04-24T12:12:06;8.43;;;5.80;;
13897;SDS011;7019;50.766;4.474;2023-04-24T12:14:41;9.43;;;6.37;;
13897;SDS011;7019;50.766;4.474;2023-04-24T12:17:09;9.73;;;6.67;;
13897;SDS011;7019;50.766;4.474;2023-04-24T12:19:37;8.63;;;6.40;;
13897;SDS011;7019;50.766;4.474;2023-04-24T12:22:11;8.43;;;5.90;;
13897;SDS011;7019;50.766;4.474;2023-04-24T12:27:23;7.83;;;5.80;;
13897;SDS011;7019;50.766;4.474;2023-04-24T12:29:51;8.23;;;5.97;;
13897;SDS011;7019;50.766;4.474;2023-04-24T12:32:19;9.97;;;6.27;;
13897;SDS011;7019;50.766;4.474;2023-04-24T12:34:47;7.17;;;5.80;;
13897;SDS011;7019;50.766;4.474;2023-04-24T12:37:16;9.23;;;5.47;;
13897;SDS011;7019;50.766;4.474;2023-04-24T12:39:44;7.17;;;5.97;;
13897;SDS011;7019;50.766;4.474;2023-04-24T12:42:25;7.27;;;4.77;;
13897;SDS011;7019;50.766;4.474;2023-04-24T12:44:56;7.67;;;6.30;;
13897;SDS011;7019;50.766;4.474;2023-04-24T12:47:24;9.60;;;6.43;;
13897;SDS011;7019;50.766;4.474;2023-04-24T12:49:53;6.50;;;5.83;;
13897;SDS011;7019;50.766;4.474;2023-04-24T12:52:21;7.57;;;5.63;;
13897;SDS011;7019;50.766;4.474;2023-04-24T12:54:48;7.13;;;5.30;;
13897;SDS011;7019;50.766;4.474;2023-04-24T12:57:16;7.40;;;5.50;;
13897;SDS011;7019;50.766;4.474;2023-04-24T12:59:44;7.27;;;5.37;;
13897;SDS011;7019;50.766;4.474;2023-04-24T13:02:11;6.73;;;5.90;;
13897;SDS011;7019;50.766;4.474;2023-04-24T13:04:38;10.50;;;5.80;;
13897;SDS011;7019;50.766;4.474;2023-04-24T13:07:06;7.13;;;6.00;;
13897;SDS011;7019;50.766;4.474;2023-04-24T13:09:33;9.17;;;5.93;;
13897;SDS011;7019;50.766;4.474;2023-04-24T13:12:01;6.63;;;5.37;;
13897;SDS011;7019;50.766;4.474;2023-04-24T13:14:30;10.07;;;5.97;;
13897;SDS011;7019;50.766;4.474;2023-04-24T13:16:57;7.60;;;5.70;;
13897;SDS011;7019;50.766;4.474;2023-04-24T13:19:24;7.00;;;5.50;;
13897;SDS011;7019;50.766;4.474;2023-04-24T13:21:52;10.90;;;5.37;;
13897;SDS011;7019;50.766;4.474;2023-04-24T13:24:23;8.70;;;5.40;;
13897;SDS011;7019;50.766;4.474;2023-04-24T13:26:51;7.77;;;4.93;;
13897;SDS011;7019;50.766;4.474;2023-04-24T13:29:18;8.67;;;5.07;;
13897;SDS011;7019;50.766;4.474;2023-04-24T13:31:45;6.63;;;5.10;;
13897;SDS011;7019;50.766;4.474;2023-04-24T13:34:14;7.93;;;4.70;;
13897;SDS011;7019;50.766;4.474;2023-04-24T13:36:41;7.13;;;4.90;;
13897;SDS011;7019;50.766;4.474;2023-04-24T13:39:08;6.00;;;4.57;;
13897;SDS011;7019;50.766;4.474;2023-04-24T13:41:38;6.73;;;4.83;;
13897;SDS011;7019;50.766;4.474;2023-04-24T13:44:06;9.37;;;4.30;;
13897;SDS011;7019;50.766;4.474;2023-04-24T13:46:33;6.43;;;4.27;;
13897;SDS011;7019;50.766;4.474;2023-04-24T13:49:01;5.60;;;4.03;;
13897;SDS011;7019;50.766;4.474;2023-04-24T13:51:28;9.30;;;4.70;;
13897;SDS011;7019;50.766;4.474;2023-04-24T13:53:55;5.43;;;3.73;;
13897;SDS011;7019;50.766;4.474;2023-04-24T13:56:22;6.70;;;4.10;;
13897;SDS011;7019;50.766;4.474;2023-04-24T13:58:51;7.57;;;4.37;;
13897;SDS011;7019;50.766;4.474;2023-04-24T14:01:19;5.07;;;3.87;;
13897;SDS011;7019;50.766;4.474;2023-04-24T14:03:49;3.90;;;3.37;;
13897;SDS011;7019;50.766;4.474;2023-04-24T14:06:16;5.00;;;3.57;;
13897;SDS011;7019;50.766;4.474;2023-04-24T14:08:43;5.23;;;2.97;;
13897;SDS011;7019;50.766;4.474;2023-04-24T14:11:10;6.97;;;3.57;;
13897;SDS011;7019;50.766;4.474;2023-04-24T14:13:38;5.83;;;3.20;;
13897;SDS011;7019;50.766;4.474;2023-04-24T14:16:08;5.17;;;3.23;;
13897;SDS011;7019;50.766;4.474;2023-04-24T14:18:35;5.30;;;2.87;;
13897;SDS011;7019;50.766;4.474;2023-04-24T14:21:03;5.03;;;3.10;;
13897;SDS011;7019;50.766;4.474;2023-04-24T14:23:30;5.60;;;2.57;;
13897;SDS011;7019;50.766;4.474;2023-04-24T14:25:57;6.97;;;2.80;;
13897;SDS011;7019;50.766;4.474;2023-04-24T14:28:25;4.83;;;3.17;;
13897;SDS011;7019;50.766;4.474;2023-04-24T14:30:52;5.40;;;4.13;;
13897;SDS011;7019;50.766;4.474;2023-04-24T14:33:21;10.33;;;7.47;;
13897;SDS011;7019;50.766;4.474;2023-04-24T14:35:48;4.77;;;3.83;;
13897;SDS011;7019;50.766;4.474;2023-04-24T14:38:15;4.03;;;2.83;;
13897;SDS011;7019;50.766;4.474;2023-04-24T14:40:42;3.63;;;2.70;;
13897;SDS011;7019;50.766;4.474;2023-04-24T14:43:09;6.13;;;2.30;;
13897;SDS011;7019;50.766;4.474;2023-04-24T14:45:36;6.43;;;2.93;;
13897;SDS011;7019;50.766;4.474;2023-04-24T14:48:06;4.07;;;2.20;;
13897;SDS011;7019;50.766;4.474;2023-04-24T14:50:34;4.77;;;2.70;;
13897;SDS011;7019;50.766;4.474;2023-04-24T14:53:02;6.30;;;2.20;;
13897;SDS011;7019;50.766;4.474;2023-04-24T14:55:29;5.97;;;2.10;;
13897;SDS011;7019;50.766;4.474;2023-04-24T14:57:56;3.83;;;1.93;;
13897;SDS011;7019;50.766;4.474;2023-04-24T15:00:23;4.50;;;1.80;;